Flight Track Log - Related Links

Times and Time Zones

All times are in EDT time to prevent confusion due to time zone crossing. See the N51960 flight status page for this flight to view local times or setup timezone preferences in your user account.

Time Position Orientation Groundspeed Altitude Reporting Facility
EDT Latitude Longitude Course Direction KTS MPH feet Rate Location/Type
Mon 04:10:15 PM 36.4019 -119.5206 316° Northwest 87 100 3,900  Level Oakland Center
Mon 04:11:16 PM 36.4192 -119.5408 317° Northwest 87 100 4,500 439 Climbing Oakland Center
Mon 04:12:18 PM 36.4392 -119.5581 325° Northwest 87 100 4,800 341 Climbing Oakland Center
Mon 04:13:00 PM 36.3869 -119.5601 338° Northwest  Level FlightAware Approximate
Mon 04:13:19 PM 36.4647 -119.5647 348° North 92 106 5,200  Level Oakland Center
Mon 04:14:00 PM 36.4126 -119.5730 338° Northwest  Level FlightAware Approximate
Mon 04:14:20 PM 36.4886 -119.5694 351° North 87 100 5,600  Level Oakland Center
Mon 04:15:22 PM 36.5122 -119.5817 337° Northwest 92 106 6,000 390 Climbing Oakland Center
Mon 04:16:23 PM 36.5394 -119.5997 332° Northwest 92 106 6,400 393 Climbing Oakland Center
Mon 04:17:24 PM 36.5631 -119.6128 336° Northwest 92 106 6,800 244 Climbing Oakland Center
Mon 04:18:26 PM 36.5833 -119.6311 324° Northwest 91 105 6,900 244 Climbing Oakland Center
Mon 04:19:27 PM 36.6031 -119.6464 328° Northwest 85 98 7,300 246 Climbing Oakland Center
Mon 04:20:28 PM 36.6250 -119.6586 336° Northwest 85 98 7,400 146 Climbing Oakland Center
Mon 04:21:30 PM 36.6467 -119.6736 331° Northwest 87 100 7,600 146 Climbing Oakland Center
Mon 04:22:31 PM 36.6711 -119.6881 335° Northwest 95 109 7,700 98 Climbing Oakland Center
Mon 04:23:32 PM 36.6986 -119.6983 343° North 102 117 7,800 49 Climbing Oakland Center
Mon 04:24:33 PM 36.7239 -119.7161 331° Northwest 101 116 7,800  Level Oakland Center
Mon 04:25:35 PM 36.7514 -119.7422 323° Northwest 103 119 7,800  Level Oakland Center
Mon 04:26:36 PM 36.7781 -119.7564 337° Northwest 106 122 7,800  Level Oakland Center
Mon 04:27:38 PM 36.8072 -119.7633 349° North 106 122 7,800  Level Oakland Center
Mon 04:28:39 PM 36.8311 -119.7864 322° Northwest 107 123 7,800  Level Oakland Center
Mon 04:29:40 PM 36.8597 -119.7994 340° North 110 127 7,800 49 Level Oakland Center
Mon 04:30:41 PM 36.8833 -119.8194 326° Northwest 105 121 7,900 49 Climbing Oakland Center
Mon 04:31:43 PM 36.9072 -119.8403 325° Northwest 105 121 7,900  Level Oakland Center
Mon 04:32:44 PM 36.9319 -119.8600 327° Northwest 105 121 7,900 49 Level Oakland Center
Mon 04:33:46 PM 36.9550 -119.8831 321° Northwest 106 122 8,000 49 Climbing Oakland Center
Mon 04:34:47 PM 36.9856 -119.9064 329° Northwest 108 124 8,000  Level Oakland Center
Mon 04:35:48 PM 37.0092 -119.9281 324° Northwest 107 123 8,000  Level Oakland Center
Mon 04:36:50 PM 37.0306 -119.9539 316° Northwest 107 123 8,000  Level Oakland Center
Mon 04:37:51 PM 37.0544 -119.9761 323° Northwest 109 125 8,000  Level Oakland Center
Mon 04:38:52 PM 37.0844 -119.9933 335° Northwest 110 127 8,000  Level Oakland Center
Mon 04:39:54 PM 37.1089 -120.0128 328° Northwest 107 123 8,000  Level Oakland Center
Mon 04:40:55 PM 37.1358 -120.0361 325° Northwest 111 128 8,000  Level Oakland Center
Mon 04:41:56 PM 37.1503 -120.0681 300° West 110 127 8,000  Level Oakland Center
Mon 04:42:58 PM 37.1533 -120.1036 276° West 102 117 8,000 -146 Level Oakland Center
Mon 04:43:59 PM 37.1747 -120.1342 311° West 115 132 7,700 -344 Descending Oakland Center
Mon 04:45:00 PM 37.1922 -120.1689 302° West 111 128 7,300 -439 Descending Oakland Center
Mon 04:46:02 PM 37.2011 -120.2083 286° West 118 136 6,800 -537 Descending Oakland Center
Mon 04:47:03 PM 37.2161 -120.2500 294° West 122 140 6,200 -639 Descending Oakland Center
Mon 04:48:04 PM 37.2342 -120.2858 302° West 124 143 5,500 -683 Descending Oakland Center
Mon 04:49:06 PM 37.2511 -120.3236 299° West 119 137 4,800 -585 Descending Oakland Center
Mon 04:50:07 PM 37.2547 -120.3611 277° West 111 128 4,300 -505 Descending Oakland Center
Mon 04:50:41 PM 37.2667 -120.3833 304° West 114 131 4,000 -638 Descending Northern Cal TRACON
Mon 04:51:41 PM 37.2667 -120.4167 270° West 109 125 3,300 -850 Descending Northern Cal TRACON
Mon 04:52:41 PM 37.2833 -120.4500 302° West 106 122 2,300 -750 Descending Northern Cal TRACON
Mon 04:53:41 PM 37.3000 -120.4833 302° West 97 112 1,800 -300 Descending Northern Cal TRACON
Mon 04:54:41 PM 37.3167 -120.5000 322° Northwest 97 112 1,700 -400 Descending Northern Cal TRACON
Mon 04:55:41 PM 37.3333 -120.5333 302° West 105 121 1,000 -600 Descending Northern Cal TRACON
Mon 04:56:41 PM 37.3667 -120.5500 338° Northwest 105 121 500 -500 Descending Northern Cal TRACON
Mon 04:58:00 PM 37.3667 -120.5667 313° West  Level FlightAware Approximate
Mon 05:05:00 PM 37.3805 -120.5682 313° West  Level Estimated

Login

Don't have an account? Register now (free) for customized features, flight alerts, and more!